• Join FlightAware (Why Join?)
  • Login
  • US Flag 
07:37PM EDT


 

Airport Tracker/Info


-or-


 

Live Flight TrackerFlight Track Log ✈ UAL3776 ✈ 18-Apr-2013 ✈ KIAD - KRDU

Flight Track Log - Related Links

Times and Time Zones

All times are in EDT time to prevent confusion due to time zone crossing. See the UAL3776 flight status page for this flight to view local times or setup timezone preferences in your user account.

Time Position Orientation Groundspeed Altitude Reporting Facility
EDT Latitude Longitude Course Direction KTS MPH feet Rate Location/Type
04:07PM 38.9500 -77.5000 247° West 168 193 1,200  Level Potomac TRACON
04:07PM 38.9333 -77.5500 247° West 202 232 2,400 1,680 Climbing Potomac TRACON
04:09PM 38.8711 -77.6286 225° Southwest 257 296 4,900 1,620 Climbing Washington Center
04:10PM 38.8131 -77.6111 167° South 237 273 6,200 2,040 Climbing Washington Center
04:11PM 38.7553 -77.5775 156° South 228 262 9,000 2,400 Climbing Washington Center
04:12PM 38.6822 -77.5756 179° South 243 280 11,000 960 Climbing Washington Center
04:13PM 38.6053 -77.5761 180° South 258 297 11,000 420 Level Washington Center
04:14PM 38.5217 -77.5739 179° South 284 327 11,900 900 Climbing Washington Center
04:15PM 38.4258 -77.5714 179° South 319 367 12,900 1,020 Climbing Washington Center
04:16PM 38.3292 -77.6244 203° Southwest 355 409 14,000 1,500 Climbing Washington Center
04:17PM 38.2403 -77.7039 215° Southwest 370 426 16,000 1,740 Climbing Washington Center
04:18PM 38.1511 -77.7833 215° Southwest 388 447 17,500 1,200 Climbing Washington Center
04:19PM 38.0558 -77.8622 213° Southwest 399 459 18,400 1,080 Climbing Washington Center
04:20PM 37.9606 -77.9383 212° Southwest 406 467 19,700 1,260 Climbing Washington Center
04:21PM 37.8650 -78.0222 215° Southwest 413 475 21,000 1,140 Climbing Washington Center
04:22PM 37.7672 -78.1058 214° Southwest 418 481 22,000 480 Climbing Washington Center
04:23PM 37.6739 -78.1867 214° Southwest 429 494 22,000  Level Washington Center
04:24PM 37.5761 -78.2697 214° Southwest 429 494 22,000  Level Washington Center
04:25PM 37.4761 -78.3500 213° Southwest 429 494 22,000  Level Washington Center
04:26PM 37.3764 -78.4328 213° Southwest 429 494 22,000  Level Washington Center
04:27PM 37.2783 -78.5178 215° Southwest 429 494 22,000  Level Washington Center
04:28PM 37.1656 -78.6072 212° Southwest 434 499 22,000  Level Washington Center
04:29PM 37.0653 -78.6919 214° Southwest 434 499 22,000  Level Washington Center
04:30PM 36.9650 -78.7736 213° Southwest 434 499 22,000 -660 Level Washington Center
04:31PM 36.8647 -78.8578 214° Southwest 434 499 20,700 -1,620 Descending Washington Center
04:32PM 36.7753 -78.9292 213° Southwest 434 499 18,800 -1,800 Descending Washington Center
04:33PM 36.6794 -78.9975 210° Southwest 422 486 17,200 -1,500 Descending Washington Center
04:34PM 36.5714 -78.9825 174° South 359 413 15,800 -2,280 Descending Washington Center
04:35PM 36.4864 -78.9608 168° South 347 399 12,700 -3,060 Descending Washington Center
04:36PM 36.4017 -78.9339 166° South 317 365 10,200 -1,980 Descending Washington Center
04:36PM 36.3506 -78.8956 149° Southeast 276 318 9,500 -1,140 Descending Washington Center
04:37PM 36.3364 -78.8769 133° Southeast 291 335 8,900 -1,380 Descending Washington Center
04:37PM 36.2894 -78.8389 147° Southeast 254 292 8,100 -840 Descending Washington Center
04:38PM 36.2731 -78.8228 142° Southeast 263 303 8,100  Level Washington Center
04:38PM 36.2447 -78.7983 145° Southeast 219 252 8,100 -300 Level Washington Center
04:39PM 36.2222 -78.7769 143° Southeast 238 274 7,800 -1,080 Descending Washington Center
04:39PM 36.1875 -78.7472 145° Southeast 218 251 6,900 -1,200 Descending Washington Center
04:40PM 36.1775 -78.7364 139° Southeast 233 268 6,600 -1,020 Descending Washington Center
04:40PM 36.1508 -78.7122 144° Southeast 217 250 6,100 -600 Descending Washington Center
04:41PM 36.1350 -78.6858 127° Southeast 221 254 6,000 -1,200 Descending Washington Center
04:41PM 36.1067 -78.6461 131° Southeast 219 252 4,800 -1,620 Descending Washington Center
04:42PM 36.0944 -78.6356 145° Southeast 215 247 4,400 -1,560 Descending Washington Center
04:42PM 36.0444 -78.6311 176° South 216 249 3,100 -1,440 Descending Washington Center
04:43PM 36.0364 -78.6256 151° Southeast 203 234 3,000  Descending Washington Center
04:44PM 35.9917 -78.6597 212° Southwest 164 189 3,100 60 Climbing Washington Center